sensor_id;sensor_type;location;lat;lon;timestamp;pressure;altitude;pressure_sealevel;temperature;humidity
44934;BME280;30667;43.614;1.442;2023-02-18T00:01:18;101521.13;;;8.61;100.00
44934;BME280;30667;43.614;1.442;2023-02-18T00:03:44;101514.56;;;8.57;100.00
44934;BME280;30667;43.614;1.442;2023-02-18T00:08:44;101516.41;;;8.57;100.00
44934;BME280;30667;43.614;1.442;2023-02-18T00:11:10;101516.19;;;8.58;100.00
44934;BME280;30667;43.614;1.442;2023-02-18T00:13:35;101505.84;;;8.55;100.00
44934;BME280;30667;43.614;1.442;2023-02-18T00:16:05;101512.75;;;8.51;100.00
44934;BME280;30667;43.614;1.442;2023-02-18T00:18:31;101509.09;;;8.45;100.00
44934;BME280;30667;43.614;1.442;2023-02-18T00:20:57;101508.03;;;8.46;100.00
44934;BME280;30667;43.614;1.442;2023-02-18T00:23:23;101511.34;;;8.48;100.00
44934;BME280;30667;43.614;1.442;2023-02-18T00:25:48;101507.88;;;8.41;100.00
44934;BME280;30667;43.614;1.442;2023-02-18T00:28:14;101506.66;;;8.37;100.00
44934;BME280;30667;43.614;1.442;2023-02-18T00:30:40;101506.06;;;8.35;100.00
44934;BME280;30667;43.614;1.442;2023-02-18T00:33:06;101504.28;;;8.29;100.00
44934;BME280;30667;43.614;1.442;2023-02-18T00:35:31;101496.06;;;8.24;100.00
44934;BME280;30667;43.614;1.442;2023-02-18T00:37:57;101503.28;;;8.23;100.00
44934;BME280;30667;43.614;1.442;2023-02-18T00:40:22;101500.22;;;8.19;100.00
44934;BME280;30667;43.614;1.442;2023-02-18T00:42:47;101502.34;;;8.17;100.00
44934;BME280;30667;43.614;1.442;2023-02-18T00:45:13;101504.22;;;8.17;100.00
44934;BME280;30667;43.614;1.442;2023-02-18T00:47:38;101493.50;;;8.10;100.00
44934;BME280;30667;43.614;1.442;2023-02-18T00:50:04;101498.28;;;8.08;100.00
44934;BME280;30667;43.614;1.442;2023-02-18T00:52:30;101505.56;;;8.08;100.00
44934;BME280;30667;43.614;1.442;2023-02-18T00:54:55;101499.56;;;8.06;100.00
44934;BME280;30667;43.614;1.442;2023-02-18T00:57:20;101507.03;;;8.04;100.00
44934;BME280;30667;43.614;1.442;2023-02-18T00:59:46;101510.19;;;8.00;100.00
44934;BME280;30667;43.614;1.442;2023-02-18T01:02:11;101503.00;;;7.94;100.00
44934;BME280;30667;43.614;1.442;2023-02-18T01:04:37;101504.88;;;7.94;100.00
44934;BME280;30667;43.614;1.442;2023-02-18T01:07:02;101504.44;;;7.97;100.00
44934;BME280;30667;43.614;1.442;2023-02-18T01:09:28;101501.81;;;7.90;100.00
44934;BME280;30667;43.614;1.442;2023-02-18T01:11:53;101501.66;;;7.85;100.00
44934;BME280;30667;43.614;1.442;2023-02-18T01:14:18;101502.41;;;7.92;100.00
44934;BME280;30667;43.614;1.442;2023-02-18T01:16:44;101501.44;;;7.87;100.00
44934;BME280;30667;43.614;1.442;2023-02-18T01:19:09;101501.88;;;7.84;100.00
44934;BME280;30667;43.614;1.442;2023-02-18T01:21:35;101507.50;;;7.82;100.00
44934;BME280;30667;43.614;1.442;2023-02-18T01:24:00;101495.50;;;7.78;100.00
44934;BME280;30667;43.614;1.442;2023-02-18T01:26:25;101496.75;;;7.75;100.00
44934;BME280;30667;43.614;1.442;2023-02-18T01:28:51;101494.31;;;7.74;100.00
44934;BME280;30667;43.614;1.442;2023-02-18T01:31:16;101484.28;;;7.81;100.00
44934;BME280;30667;43.614;1.442;2023-02-18T01:33:42;101488.66;;;7.75;100.00
44934;BME280;30667;43.614;1.442;2023-02-18T01:36:08;101482.75;;;7.67;100.00
44934;BME280;30667;43.614;1.442;2023-02-18T01:38:34;101477.00;;;7.63;100.00
44934;BME280;30667;43.614;1.442;2023-02-18T01:41:00;101489.84;;;7.61;100.00
44934;BME280;30667;43.614;1.442;2023-02-18T01:43:25;101484.69;;;7.59;100.00
44934;BME280;30667;43.614;1.442;2023-02-18T01:48:37;101489.03;;;7.60;100.00
44934;BME280;30667;43.614;1.442;2023-02-18T01:53:39;101486.19;;;7.55;100.00
44934;BME280;30667;43.614;1.442;2023-02-18T01:56:11;101479.13;;;7.54;100.00
44934;BME280;30667;43.614;1.442;2023-02-18T01:58:39;101479.13;;;7.54;100.00
44934;BME280;30667;43.614;1.442;2023-02-18T02:01:05;101485.75;;;7.58;100.00
44934;BME280;30667;43.614;1.442;2023-02-18T02:03:30;101490.53;;;7.56;100.00
44934;BME280;30667;43.614;1.442;2023-02-18T02:05:56;101488.22;;;7.60;100.00
44934;BME280;30667;43.614;1.442;2023-02-18T02:08:21;101484.75;;;7.53;100.00
44934;BME280;30667;43.614;1.442;2023-02-18T02:16:40;101488.16;;;7.41;100.00
44934;BME280;30667;43.614;1.442;2023-02-18T02:35:36;101470.97;;;7.17;100.00
44934;BME280;30667;43.614;1.442;2023-02-18T02:38:33;101468.06;;;7.19;100.00
44934;BME280;30667;43.614;1.442;2023-02-18T02:46:53;101466.66;;;7.09;100.00
44934;BME280;30667;43.614;1.442;2023-02-18T02:49:40;101462.13;;;7.10;100.00
44934;BME280;30667;43.614;1.442;2023-02-18T02:54:37;101456.56;;;7.05;100.00
44934;BME280;30667;43.614;1.442;2023-02-18T02:59:41;101447.06;;;7.02;100.00
44934;BME280;30667;43.614;1.442;2023-02-18T03:04:59;101460.97;;;6.99;100.00
44934;BME280;30667;43.614;1.442;2023-02-18T03:13:28;101457.88;;;6.96;100.00
44934;BME280;30667;43.614;1.442;2023-02-18T03:16:24;101454.19;;;6.90;100.00
44934;BME280;30667;43.614;1.442;2023-02-18T03:18:57;101465.97;;;6.89;100.00
44934;BME280;30667;43.614;1.442;2023-02-18T03:22:19;101456.94;;;6.83;100.00
44934;BME280;30667;43.614;1.442;2023-02-18T03:24:40;101451.13;;;6.86;100.00
44934;BME280;30667;43.614;1.442;2023-02-18T03:27:40;101450.09;;;6.81;100.00
44934;BME280;30667;43.614;1.442;2023-02-18T03:30:24;101446.44;;;6.75;100.00
44934;BME280;30667;43.614;1.442;2023-02-18T03:32:57;101441.06;;;6.75;100.00
44934;BME280;30667;43.614;1.442;2023-02-18T03:35:25;101431.91;;;6.76;100.00
44934;BME280;30667;43.614;1.442;2023-02-18T03:38:03;101440.63;;;6.71;100.00
44934;BME280;30667;43.614;1.442;2023-02-18T03:40:31;101434.28;;;6.66;100.00
44934;BME280;30667;43.614;1.442;2023-02-18T03:42:57;101435.31;;;6.65;100.00
44934;BME280;30667;43.614;1.442;2023-02-18T03:45:24;101430.56;;;6.60;100.00
44934;BME280;30667;43.614;1.442;2023-02-18T03:47:50;101429.97;;;6.58;100.00
44934;BME280;30667;43.614;1.442;2023-02-18T03:50:16;101428.34;;;6.50;100.00
44934;BME280;30667;43.614;1.442;2023-02-18T03:52:41;101424.63;;;6.51;100.00
44934;BME280;30667;43.614;1.442;2023-02-18T03:55:07;101425.47;;;6.52;100.00
44934;BME280;30667;43.614;1.442;2023-02-18T03:57:33;101434.78;;;6.49;100.00
44934;BME280;30667;43.614;1.442;2023-02-18T03:59:59;101424.91;;;6.43;100.00
44934;BME280;30667;43.614;1.442;2023-02-18T04:02:24;101429.84;;;6.46;100.00
44934;BME280;30667;43.614;1.442;2023-02-18T04:04:50;101430.06;;;6.45;100.00
44934;BME280;30667;43.614;1.442;2023-02-18T04:07:15;101428.56;;;6.49;100.00
44934;BME280;30667;43.614;1.442;2023-02-18T04:09:40;101431.69;;;6.46;100.00
44934;BME280;30667;43.614;1.442;2023-02-18T04:12:06;101425.50;;;6.45;100.00
44934;BME280;30667;43.614;1.442;2023-02-18T04:14:31;101431.31;;;6.42;100.00
44934;BME280;30667;43.614;1.442;2023-02-18T04:16:57;101427.59;;;6.43;100.00
44934;BME280;30667;43.614;1.442;2023-02-18T04:19:22;101427.38;;;6.38;100.00
44934;BME280;30667;43.614;1.442;2023-02-18T04:21:47;101419.31;;;6.38;100.00
44934;BME280;30667;43.614;1.442;2023-02-18T04:24:13;101424.09;;;6.36;100.00
44934;BME280;30667;43.614;1.442;2023-02-18T04:26:38;101424.31;;;6.34;100.00
44934;BME280;30667;43.614;1.442;2023-02-18T04:29:04;101422.03;;;6.31;100.00
44934;BME280;30667;43.614;1.442;2023-02-18T04:31:29;101429.72;;;6.28;100.00
44934;BME280;30667;43.614;1.442;2023-02-18T04:33:55;101429.13;;;6.26;100.00
44934;BME280;30667;43.614;1.442;2023-02-18T04:36:20;101434.06;;;6.22;100.00
44934;BME280;30667;43.614;1.442;2023-02-18T04:38:45;101433.44;;;6.27;100.00
44934;BME280;30667;43.614;1.442;2023-02-18T04:41:11;101430.16;;;6.25;100.00
44934;BME280;30667;43.614;1.442;2023-02-18T04:43:37;101424.41;;;6.14;100.00
44934;BME280;30667;43.614;1.442;2023-02-18T04:46:03;101431.00;;;6.18;100.00
44934;BME280;30667;43.614;1.442;2023-02-18T04:48:28;101427.91;;;6.15;100.00
44934;BME280;30667;43.614;1.442;2023-02-18T04:50:54;101427.94;;;6.08;100.00
44934;BME280;30667;43.614;1.442;2023-02-18T04:53:19;101427.13;;;6.01;100.00
44934;BME280;30667;43.614;1.442;2023-02-18T04:55:51;101424.44;;;6.01;100.00
44934;BME280;30667;43.614;1.442;2023-02-18T04:58:18;101425.88;;;6.10;100.00
44934;BME280;30667;43.614;1.442;2023-02-18T05:00:43;101433.75;;;6.05;100.00
44934;BME280;30667;43.614;1.442;2023-02-18T05:03:09;101434.00;;;5.97;100.00
44934;BME280;30667;43.614;1.442;2023-02-18T05:05:34;101435.63;;;5.98;100.00
44934;BME280;30667;43.614;1.442;2023-02-18T05:08:02;101427.34;;;5.93;100.00
44934;BME280;30667;43.614;1.442;2023-02-18T05:10:28;101437.50;;;5.91;100.00
44934;BME280;30667;43.614;1.442;2023-02-18T05:12:53;101432.94;;;5.91;100.00
44934;BME280;30667;43.614;1.442;2023-02-18T05:15:19;101439.13;;;5.92;100.00
44934;BME280;30667;43.614;1.442;2023-02-18T05:17:44;101444.69;;;5.90;100.00
44934;BME280;30667;43.614;1.442;2023-02-18T05:20:10;101442.69;;;5.86;100.00
44934;BME280;30667;43.614;1.442;2023-02-18T05:22:36;101444.94;;;5.82;100.00
44934;BME280;30667;43.614;1.442;2023-02-18T05:25:01;101442.25;;;5.82;100.00
44934;BME280;30667;43.614;1.442;2023-02-18T05:27:26;101446.81;;;5.81;100.00
44934;BME280;30667;43.614;1.442;2023-02-18T05:29:52;101446.38;;;5.85;100.00
44934;BME280;30667;43.614;1.442;2023-02-18T05:32:17;101453.41;;;5.86;100.00
44934;BME280;30667;43.614;1.442;2023-02-18T05:34:43;101451.13;;;5.89;100.00
44934;BME280;30667;43.614;1.442;2023-02-18T05:37:08;101450.53;;;5.87;100.00
44934;BME280;30667;43.614;1.442;2023-02-18T05:39:33;101441.81;;;5.85;100.00
44934;BME280;30667;43.614;1.442;2023-02-18T05:41:59;101457.34;;;5.83;100.00
44934;BME280;30667;43.614;1.442;2023-02-18T05:44:24;101453.00;;;5.82;100.00
44934;BME280;30667;43.614;1.442;2023-02-18T05:46:58;101454.25;;;5.79;100.00
44934;BME280;30667;43.614;1.442;2023-02-18T05:49:24;101452.63;;;5.72;100.00
44934;BME280;30667;43.614;1.442;2023-02-18T05:51:49;101453.63;;;5.77;100.00
44934;BME280;30667;43.614;1.442;2023-02-18T05:54:15;101448.91;;;5.73;100.00
44934;BME280;30667;43.614;1.442;2023-02-18T05:56:40;101451.34;;;5.74;100.00
44934;BME280;30667;43.614;1.442;2023-02-18T05:59:06;101449.72;;;5.73;100.00
44934;BME280;30667;43.614;1.442;2023-02-18T06:01:31;101450.75;;;5.66;100.00
44934;BME280;30667;43.614;1.442;2023-02-18T06:03:57;101453.22;;;5.74;100.00
44934;BME280;30667;43.614;1.442;2023-02-18T06:06:22;101449.53;;;5.61;100.00
44934;BME280;30667;43.614;1.442;2023-02-18T06:08:47;101446.00;;;5.68;100.00
44934;BME280;30667;43.614;1.442;2023-02-18T06:11:13;101439.38;;;5.77;100.00
44934;BME280;30667;43.614;1.442;2023-02-18T06:13:38;101437.50;;;5.77;100.00
44934;BME280;30667;43.614;1.442;2023-02-18T06:16:04;101445.78;;;5.69;100.00
44934;BME280;30667;43.614;1.442;2023-02-18T06:18:29;101441.69;;;5.67;100.00
44934;BME280;30667;43.614;1.442;2023-02-18T06:20:55;101437.53;;;5.64;100.00
44934;BME280;30667;43.614;1.442;2023-02-18T06:23:20;101443.13;;;5.56;100.00
44934;BME280;30667;43.614;1.442;2023-02-18T06:25:48;101440.66;;;5.61;100.00
44934;BME280;30667;43.614;1.442;2023-02-18T06:28:13;101440.66;;;5.61;100.00
44934;BME280;30667;43.614;1.442;2023-02-18T06:30:39;101449.13;;;5.58;100.00
44934;BME280;30667;43.614;1.442;2023-02-18T06:33:04;101439.66;;;5.55;100.00
44934;BME280;30667;43.614;1.442;2023-02-18T06:35:30;101439.63;;;5.49;100.00
44934;BME280;30667;43.614;1.442;2023-02-18T06:37:55;101455.13;;;5.53;100.00
44934;BME280;30667;43.614;1.442;2023-02-18T06:40:21;101446.66;;;5.50;100.00
44934;BME280;30667;43.614;1.442;2023-02-18T06:42:46;101440.47;;;5.49;100.00
44934;BME280;30667;43.614;1.442;2023-02-18T06:45:12;101442.31;;;5.49;100.00
44934;BME280;30667;43.614;1.442;2023-02-18T06:47:37;101443.53;;;5.73;100.00
44934;BME280;30667;43.614;1.442;2023-02-18T06:50:03;101446.44;;;5.58;100.00
44934;BME280;30667;43.614;1.442;2023-02-18T06:52:29;101447.88;;;5.47;100.00
44934;BME280;30667;43.614;1.442;2023-02-18T06:54:57;101444.19;;;5.48;100.00
44934;BME280;30667;43.614;1.442;2023-02-18T06:57:22;101442.72;;;5.45;100.00
44934;BME280;30667;43.614;1.442;2023-02-18T06:59:48;101448.94;;;5.39;100.00
44934;BME280;30667;43.614;1.442;2023-02-18T07:02:13;101452.22;;;5.48;100.00
44934;BME280;30667;43.614;1.442;2023-02-18T07:04:39;101451.84;;;5.44;100.00
44934;BME280;30667;43.614;1.442;2023-02-18T07:07:04;101453.06;;;5.42;100.00
44934;BME280;30667;43.614;1.442;2023-02-18T07:09:30;101454.91;;;5.48;100.00
44934;BME280;30667;43.614;1.442;2023-02-18T07:11:56;101451.59;;;5.59;100.00
44934;BME280;30667;43.614;1.442;2023-02-18T07:14:21;101463.97;;;5.67;100.00
44934;BME280;30667;43.614;1.442;2023-02-18T07:16:48;101453.88;;;5.62;100.00
44934;BME280;30667;43.614;1.442;2023-02-18T07:19:14;101453.44;;;5.66;100.00
44934;BME280;30667;43.614;1.442;2023-02-18T07:21:39;101458.59;;;5.67;100.00
44934;BME280;30667;43.614;1.442;2023-02-18T07:24:05;101456.50;;;5.76;100.00
44934;BME280;30667;43.614;1.442;2023-02-18T07:26:30;101462.09;;;5.74;100.00
44934;BME280;30667;43.614;1.442;2023-02-18T07:28:56;101457.78;;;5.73;100.00
44934;BME280;30667;43.614;1.442;2023-02-18T07:31:21;101466.44;;;5.75;100.00
44934;BME280;30667;43.614;1.442;2023-02-18T07:33:47;101461.69;;;5.77;100.00
44934;BME280;30667;43.614;1.442;2023-02-18T07:36:12;101466.41;;;5.82;100.00
44934;BME280;30667;43.614;1.442;2023-02-18T07:38:37;101478.41;;;5.86;100.00
44934;BME280;30667;43.614;1.442;2023-02-18T07:41:04;101476.94;;;5.90;100.00
44934;BME280;30667;43.614;1.442;2023-02-18T07:43:30;101476.72;;;5.92;100.00
44934;BME280;30667;43.614;1.442;2023-02-18T07:45:55;101474.47;;;5.95;100.00
44934;BME280;30667;43.614;1.442;2023-02-18T07:48:20;101482.72;;;5.94;100.00
44934;BME280;30667;43.614;1.442;2023-02-18T07:50:46;101482.72;;;5.94;100.00
44934;BME280;30667;43.614;1.442;2023-02-18T07:53:16;101488.53;;;5.91;100.00
44934;BME280;30667;43.614;1.442;2023-02-18T07:55:41;101485.22;;;5.95;100.00
44934;BME280;30667;43.614;1.442;2023-02-18T07:58:21;101490.38;;;6.04;100.00
44934;BME280;30667;43.614;1.442;2023-02-18T08:00:47;101481.91;;;6.07;100.00
44934;BME280;30667;43.614;1.442;2023-02-18T08:03:18;101486.84;;;6.10;100.00
44934;BME280;30667;43.614;1.442;2023-02-18T08:05:47;101485.16;;;6.15;100.00
44934;BME280;30667;43.614;1.442;2023-02-18T08:08:14;101483.50;;;6.21;100.00
44934;BME280;30667;43.614;1.442;2023-02-18T08:10:40;101491.34;;;6.29;100.00
44934;BME280;30667;43.614;1.442;2023-02-18T08:13:05;101490.91;;;6.32;100.00
44934;BME280;30667;43.614;1.442;2023-02-18T08:15:31;101497.06;;;6.40;100.00
44934;BME280;30667;43.614;1.442;2023-02-18T08:17:56;101485.44;;;6.52;100.00
44934;BME280;30667;43.614;1.442;2023-02-18T08:20:22;101486.44;;;6.58;100.00
44934;BME280;30667;43.614;1.442;2023-02-18T08:22:47;101500.06;;;6.63;100.00
44934;BME280;30667;43.614;1.442;2023-02-18T08:25:13;101490.13;;;6.70;100.00
44934;BME280;30667;43.614;1.442;2023-02-18T08:27:38;101493.63;;;6.71;100.00
44934;BME280;30667;43.614;1.442;2023-02-18T08:30:04;101495.66;;;6.76;100.00
44934;BME280;30667;43.614;1.442;2023-02-18T08:32:30;101500.63;;;6.79;100.00
44934;BME280;30667;43.614;1.442;2023-02-18T08:34:55;101503.31;;;6.79;100.00
44934;BME280;30667;43.614;1.442;2023-02-18T08:37:21;101500.56;;;6.85;100.00
44934;BME280;30667;43.614;1.442;2023-02-18T08:39:48;101498.91;;;6.84;100.00
44934;BME280;30667;43.614;1.442;2023-02-18T08:42:13;101500.13;;;6.88;100.00
44934;BME280;30667;43.614;1.442;2023-02-18T08:44:38;101498.25;;;6.89;100.00
44934;BME280;30667;43.614;1.442;2023-02-18T08:47:04;101515.38;;;7.01;100.00
44934;BME280;30667;43.614;1.442;2023-02-18T08:49:29;101512.03;;;7.06;100.00
44934;BME280;30667;43.614;1.442;2023-02-18T08:51:55;101509.69;;;7.16;100.00
44934;BME280;30667;43.614;1.442;2023-02-18T08:54:20;101509.44;;;7.24;100.00
44934;BME280;30667;43.614;1.442;2023-02-18T08:56:46;101504.16;;;7.36;100.00
44934;BME280;30667;43.614;1.442;2023-02-18T08:59:12;101507.00;;;7.41;100.00
44934;BME280;30667;43.614;1.442;2023-02-18T09:01:37;101509.41;;;7.50;100.00
44934;BME280;30667;43.614;1.442;2023-02-18T09:04:03;101512.09;;;7.56;100.00
44934;BME280;30667;43.614;1.442;2023-02-18T09:06:28;101512.84;;;7.63;100.00
44934;BME280;30667;43.614;1.442;2023-02-18T09:08:54;101506.78;;;7.68;100.00
44934;BME280;30667;43.614;1.442;2023-02-18T09:11:20;101510.69;;;7.72;100.00
44934;BME280;30667;43.614;1.442;2023-02-18T09:13:45;101516.47;;;7.76;100.00
44934;BME280;30667;43.614;1.442;2023-02-18T09:16:15;101503.72;;;7.83;100.00
44934;BME280;30667;43.614;1.442;2023-02-18T09:18:42;101499.34;;;7.89;100.00
44934;BME280;30667;43.614;1.442;2023-02-18T09:21:08;101500.91;;;7.96;100.00
44934;BME280;30667;43.614;1.442;2023-02-18T09:23:34;101504.78;;;8.00;100.00
44934;BME280;30667;43.614;1.442;2023-02-18T09:26:04;101515.50;;;8.07;100.00
44934;BME280;30667;43.614;1.442;2023-02-18T09:28:29;101506.91;;;8.17;100.00
44934;BME280;30667;43.614;1.442;2023-02-18T09:30:55;101513.25;;;8.23;100.00
44934;BME280;30667;43.614;1.442;2023-02-18T09:33:21;101512.00;;;8.25;100.00
44934;BME280;30667;43.614;1.442;2023-02-18T09:35:47;101512.16;;;8.30;100.00
44934;BME280;30667;43.614;1.442;2023-02-18T09:38:15;101503.75;;;8.39;100.00
44934;BME280;30667;43.614;1.442;2023-02-18T09:40:45;101500.41;;;8.43;100.00
44934;BME280;30667;43.614;1.442;2023-02-18T09:43:33;101503.84;;;8.50;100.00
44934;BME280;30667;43.614;1.442;2023-02-18T09:46:01;101502.69;;;8.58;100.00
44934;BME280;30667;43.614;1.442;2023-02-18T09:48:31;101501.78;;;8.64;100.00
44934;BME280;30667;43.614;1.442;2023-02-18T09:50:58;101505.69;;;8.68;100.00
44934;BME280;30667;43.614;1.442;2023-02-18T09:53:24;101494.56;;;8.77;100.00
44934;BME280;30667;43.614;1.442;2023-02-18T09:55:52;101502.25;;;8.91;100.00
44934;BME280;30667;43.614;1.442;2023-02-18T09:58:25;101498.41;;;8.99;100.00
44934;BME280;30667;43.614;1.442;2023-02-18T10:01:19;101493.47;;;8.96;100.00
44934;BME280;30667;43.614;1.442;2023-02-18T10:03:46;101501.22;;;9.04;100.00
44934;BME280;30667;43.614;1.442;2023-02-18T10:06:21;101497.13;;;9.14;100.00
44934;BME280;30667;43.614;1.442;2023-02-18T10:08:50;101499.16;;;9.18;100.00
44934;BME280;30667;43.614;1.442;2023-02-18T10:11:28;101498.81;;;9.26;100.00
44934;BME280;30667;43.614;1.442;2023-02-18T10:13:54;101491.53;;;9.27;100.00
44934;BME280;30667;43.614;1.442;2023-02-18T10:16:22;101484.03;;;9.41;100.00
44934;BME280;30667;43.614;1.442;2023-02-18T10:18:53;101486.28;;;9.56;100.00
44934;BME280;30667;43.614;1.442;2023-02-18T10:21:24;101477.09;;;9.57;100.00
44934;BME280;30667;43.614;1.442;2023-02-18T10:26:43;101476.16;;;9.63;100.00
44934;BME280;30667;43.614;1.442;2023-02-18T10:29:17;101473.59;;;9.80;100.00
44934;BME280;30667;43.614;1.442;2023-02-18T10:31:51;101470.88;;;9.80;100.00
44934;BME280;30667;43.614;1.442;2023-02-18T10:34:49;101463.59;;;9.80;100.00
44934;BME280;30667;43.614;1.442;2023-02-18T10:42:31;101458.81;;;10.11;100.00
44934;BME280;30667;43.614;1.442;2023-02-18T10:47:55;101455.38;;;10.28;100.00
44934;BME280;30667;43.614;1.442;2023-02-18T10:50:31;101456.31;;;10.33;100.00
44934;BME280;30667;43.614;1.442;2023-02-18T10:53:02;101456.31;;;10.45;100.00
44934;BME280;30667;43.614;1.442;2023-02-18T10:55:41;101449.69;;;10.53;100.00
44934;BME280;30667;43.614;1.442;2023-02-18T11:00:51;101439.44;;;10.55;100.00
44934;BME280;30667;43.614;1.442;2023-02-18T11:03:38;101437.13;;;10.64;100.00
44934;BME280;30667;43.614;1.442;2023-02-18T11:06:14;101443.00;;;10.72;100.00
44934;BME280;30667;43.614;1.442;2023-02-18T11:08:43;101435.97;;;10.88;100.00
44934;BME280;30667;43.614;1.442;2023-02-18T11:11:31;101437.03;;;11.04;100.00
44934;BME280;30667;43.614;1.442;2023-02-18T11:14:00;101435.56;;;11.14;100.00
44934;BME280;30667;43.614;1.442;2023-02-18T11:19:35;101427.84;;;11.22;100.00
44934;BME280;30667;43.614;1.442;2023-02-18T11:22:14;101425.78;;;11.30;100.00
44934;BME280;30667;43.614;1.442;2023-02-18T11:24:41;101426.34;;;11.32;100.00
44934;BME280;30667;43.614;1.442;2023-02-18T11:27:19;101422.06;;;11.36;100.00
44934;BME280;30667;43.614;1.442;2023-02-18T11:29:51;101416.31;;;11.49;100.00
44934;BME280;30667;43.614;1.442;2023-02-18T11:32:18;101412.78;;;11.49;100.00
44934;BME280;30667;43.614;1.442;2023-02-18T11:34:44;101407.25;;;11.60;100.00
44934;BME280;30667;43.614;1.442;2023-02-18T11:37:16;101410.66;;;11.34;100.00
44934;BME280;30667;43.614;1.442;2023-02-18T11:39:43;101402.16;;;11.08;100.00
44934;BME280;30667;43.614;1.442;2023-02-18T11:42:13;101412.25;;;10.96;100.00
44934;BME280;30667;43.614;1.442;2023-02-18T11:44:59;101400.28;;;10.92;100.00
44934;BME280;30667;43.614;1.442;2023-02-18T11:50:01;101386.88;;;11.02;100.00
44934;BME280;30667;43.614;1.442;2023-02-18T11:52:33;101387.13;;;11.00;100.00
44934;BME280;30667;43.614;1.442;2023-02-18T11:55:06;101382.22;;;10.97;100.00
44934;BME280;30667;43.614;1.442;2023-02-18T11:57:34;101373.84;;;10.99;100.00
44934;BME280;30667;43.614;1.442;2023-02-18T12:00:02;101369.81;;;11.01;100.00
44934;BME280;30667;43.614;1.442;2023-02-18T12:05:11;101359.06;;;11.06;100.00
44934;BME280;30667;43.614;1.442;2023-02-18T12:07:50;101361.34;;;11.15;100.00
44934;BME280;30667;43.614;1.442;2023-02-18T12:10:22;101356.81;;;11.59;100.00
44934;BME280;30667;43.614;1.442;2023-02-18T12:13:00;101343.81;;;12.06;100.00
44934;BME280;30667;43.614;1.442;2023-02-18T12:32:43;101321.72;;;12.46;100.00
44934;BME280;30667;43.614;1.442;2023-02-18T12:43:55;101304.91;;;12.49;100.00
44934;BME280;30667;43.614;1.442;2023-02-18T12:49:41;101294.53;;;12.79;100.00
44934;BME280;30667;43.614;1.442;2023-02-18T13:14:30;101243.06;;;12.99;100.00
44934;BME280;30667;43.614;1.442;2023-02-18T13:16:59;101249.66;;;13.19;100.00
44934;BME280;30667;43.614;1.442;2023-02-18T13:19:32;101242.84;;;13.11;100.00
44934;BME280;30667;43.614;1.442;2023-02-18T13:22:03;101236.06;;;13.19;100.00
44934;BME280;30667;43.614;1.442;2023-02-18T13:24:34;101233.84;;;13.00;100.00
44934;BME280;30667;43.614;1.442;2023-02-18T13:27:10;101236.34;;;13.17;100.00
44934;BME280;30667;43.614;1.442;2023-02-18T13:32:34;101227.28;;;12.96;100.00
44934;BME280;30667;43.614;1.442;2023-02-18T13:40:19;101205.94;;;13.20;100.00
44934;BME280;30667;43.614;1.442;2023-02-18T13:42:45;101206.25;;;13.29;100.00
44934;BME280;30667;43.614;1.442;2023-02-18T13:45:31;101198.94;;;13.40;100.00
44934;BME280;30667;43.614;1.442;2023-02-18T13:47:57;101202.97;;;13.32;100.00
44934;BME280;30667;43.614;1.442;2023-02-18T13:53:13;101194.97;;;13.84;100.00
44934;BME280;30667;43.614;1.442;2023-02-18T13:55:49;101189.00;;;13.87;100.00
44934;BME280;30667;43.614;1.442;2023-02-18T13:58:19;101180.41;;;13.32;100.00
44934;BME280;30667;43.614;1.442;2023-02-18T14:01:12;101182.63;;;13.40;100.00
44934;BME280;30667;43.614;1.442;2023-02-18T14:08:48;101171.00;;;13.55;100.00
44934;BME280;30667;43.614;1.442;2023-02-18T14:13:48;101172.91;;;13.59;100.00
44934;BME280;30667;43.614;1.442;2023-02-18T14:16:18;101178.34;;;13.70;100.00
44934;BME280;30667;43.614;1.442;2023-02-18T14:31:05;101164.75;;;13.70;100.00
44934;BME280;30667;43.614;1.442;2023-02-18T14:34:02;101163.16;;;13.99;100.00
44934;BME280;30667;43.614;1.442;2023-02-18T14:39:44;101146.81;;;13.74;100.00
44934;BME280;30667;43.614;1.442;2023-02-18T14:44:50;101143.00;;;13.85;100.00
44934;BME280;30667;43.614;1.442;2023-02-18T14:50:19;101144.34;;;13.52;100.00
44934;BME280;30667;43.614;1.442;2023-02-18T14:52:48;101138.88;;;13.41;100.00
44934;BME280;30667;43.614;1.442;2023-02-18T14:55:34;101131.22;;;13.28;100.00
44934;BME280;30667;43.614;1.442;2023-02-18T14:58:06;101123.91;;;13.34;100.00
44934;BME280;30667;43.614;1.442;2023-02-18T15:00:38;101116.06;;;13.37;100.00
44934;BME280;30667;43.614;1.442;2023-02-18T15:03:12;101120.44;;;13.74;100.00
44934;BME280;30667;43.614;1.442;2023-02-18T15:05:38;101115.81;;;13.85;100.00
44934;BME280;30667;43.614;1.442;2023-02-18T15:08:05;101123.16;;;13.90;100.00
44934;BME280;30667;43.614;1.442;2023-02-18T15:13:30;101111.19;;;13.55;100.00
44934;BME280;30667;43.614;1.442;2023-02-18T15:15:57;101107.63;;;13.75;100.00
44934;BME280;30667;43.614;1.442;2023-02-18T15:18:30;101096.75;;;13.80;100.00
44934;BME280;30667;43.614;1.442;2023-02-18T15:21:02;101102.47;;;13.89;100.00
44934;BME280;30667;43.614;1.442;2023-02-18T15:23:29;101099.47;;;14.01;100.00
44934;BME280;30667;43.614;1.442;2023-02-18T15:25:56;101098.34;;;14.22;100.00
44934;BME280;30667;43.614;1.442;2023-02-18T15:28:30;101094.25;;;14.25;100.00
44934;BME280;30667;43.614;1.442;2023-02-18T15:31:02;101093.22;;;13.79;100.00
44934;BME280;30667;43.614;1.442;2023-02-18T15:33:28;101095.94;;;13.64;100.00
44934;BME280;30667;43.614;1.442;2023-02-18T15:36:05;101101.09;;;13.60;100.00
44934;BME280;30667;43.614;1.442;2023-02-18T15:38:31;101099.22;;;13.61;100.00
44934;BME280;30667;43.614;1.442;2023-02-18T15:40:58;101095.69;;;13.50;100.00